Laurens, South Carolina
Current Conditions -  °F | °C
As of 4:15 PM on Friday 24 Oct 2014 (Local Time) from KLUX Reporting Station
Clear Clear  
Wind Chill: 66°   Ceiling: Unl
Heat Index: 66°   Visibility: 10mi
Dew Point: 34°   Wind: 3mph
Humidity: 30%   Direction: 290°WNW
Pressure: 30.01"   Gusts: NA
Location:  34.5°N, 82.01°W
Report Text: KLUX 242015Z AUTO 29003KT 10SM CLR 19/01 A3001 RMK AO2
Loading
Personal Weather Stations






























Interactive Weather Map
Tropical Storm Tracking
New forecast layout! Learn more

10-Day Weather Forecast

Advertisements
Track Severe Weather on mobile